Haslet, TX (76052)

6:17 PM CST on December 27, 2014 (GMT -0600)
Villages of Woodland Springs West | Change Station
CLOSE
Current Station
Personal Weather Station
Location: Keller, TX
Elevation: 797 ft
Nearby Weather Stations

Elev 797 ft 32.95 °N, 97.31 °W | Updated 15 seconds ago

Overcast
Overcast
36.3 °F
Feels Like 36 °F
N
0.0
Wind Variable Wind from NNE
Gusts 0.0 mph

Today
High -- | Low -- °F
--% Chance of Precip.
Yesterday
High -- | Low -- °F
Precip. -- in
7:30 AM 5:30 PM
Waxing Crescent, 41% visible
Pressure 30.29 in
Visibility 10.0 miles
Clouds Overcast 6500 ft
Windchill 36 °F
Dew Point 28 °F
Humidity 73%
Rainfall 0.02 in
Snow Depth Not available.
UV 0 out of 12
Pollen 10.70 out of 12
Air Quality Not available.
Flu Activity Not available.
METAR KAFW 272353Z 35009KT 10SM OVC065 02/M02 A3026 RMK AO2 SLP256 60001 T00221017 10039 20017 51010

More Conditions Fewer Conditions

Pressure 30.29 in
Visibility 10.0 miles
Clouds Overcast 6500 ft
Windchill 36 °F
Dew Point 28 °F
Humidity 73%
Rainfall 0.02 in
Snow Depth Not available.
UV 0 out of 12
Pollen 10.70 out of 12
Air Quality Not available.
Flu Activity Not available.
METAR KAFW 272353Z 35009KT 10SM OVC065 02/M02 A3026 RMK AO2 SLP256 60001 T00221017 10039 20017 51010

More Conditions Fewer Conditions

Nowcast | as of 3:18 PM CST on December 27, 2014

An area of rain continues to slide east this afternoon. At 3 PM the area was located either side of a line from Waco to Paris. Total rainfall amounts for areas that do receive rain will generally be light...and likely less than one tenth of an inch. A few areas of very small sleet may also fall out of heavier showers...but with temperatures above freezing no impacts are expected. In addition...very isolated thunder may be heard this afternoon in this line of precipitation as an occasional cell grows tall enough to produce lightning.

×

10-Day Weather Forecast

Almanac

Astronomy

Dec. 27, 2014 Rise Set
Actual Time
Civil Twilight
Nautical Twilight
Astronomical Twilight
Moon
Length of Visible Light
Length of Day
Tomorrow will be .
, % of the Moon is Illuminated

Today's Extremes

State Highs State Lows

Community

WunderPhotos

Upload Photos

1,781,115 photos uploaded!

WunderBlogs® & News

Nearby

Air Quality

  Air Quality AQ Index Pollutant
Not available.

Snow Depth

Station Depth Elevation

Earthquake Activity

City Distance Mag. Time & Date
Minimum magnitude displayed is 2.5.

Coastal Water Temperatures

Place Temperature

Nearby Weather Stations